sensor_id;sensor_type;location;lat;lon;timestamp;P1;durP1;ratioP1;P2;durP2;ratioP2
64686;SDS011;51113;53.646;-113.674;2023-06-10T00:00:21;35.25;;;18.65;;
64686;SDS011;51113;53.646;-113.674;2023-06-10T00:02:50;30.58;;;17.88;;
64686;SDS011;51113;53.646;-113.674;2023-06-10T00:05:19;30.23;;;18.80;;
64686;SDS011;51113;53.646;-113.674;2023-06-10T00:07:49;31.40;;;18.73;;
64686;SDS011;51113;53.646;-113.674;2023-06-10T00:10:18;34.05;;;18.63;;
64686;SDS011;51113;53.646;-113.674;2023-06-10T00:12:47;32.10;;;17.63;;
64686;SDS011;51113;53.646;-113.674;2023-06-10T00:15:16;30.80;;;18.25;;
64686;SDS011;51113;53.646;-113.674;2023-06-10T00:17:44;31.73;;;19.13;;
64686;SDS011;51113;53.646;-113.674;2023-06-10T00:20:13;36.35;;;18.95;;
64686;SDS011;51113;53.646;-113.674;2023-06-10T00:22:42;30.90;;;17.80;;
64686;SDS011;51113;53.646;-113.674;2023-06-10T00:25:13;29.90;;;17.97;;
64686;SDS011;51113;53.646;-113.674;2023-06-10T00:27:42;27.27;;;18.75;;
64686;SDS011;51113;53.646;-113.674;2023-06-10T00:30:11;27.50;;;17.58;;
64686;SDS011;51113;53.646;-113.674;2023-06-10T00:32:40;35.40;;;18.35;;
64686;SDS011;51113;53.646;-113.674;2023-06-10T00:35:09;44.75;;;18.88;;
64686;SDS011;51113;53.646;-113.674;2023-06-10T00:37:38;32.10;;;18.23;;
64686;SDS011;51113;53.646;-113.674;2023-06-10T00:40:07;27.50;;;17.92;;
64686;SDS011;51113;53.646;-113.674;2023-06-10T00:42:39;35.00;;;17.38;;
64686;SDS011;51113;53.646;-113.674;2023-06-10T00:45:08;30.67;;;17.15;;
64686;SDS011;51113;53.646;-113.674;2023-06-10T00:47:36;32.63;;;17.50;;
64686;SDS011;51113;53.646;-113.674;2023-06-10T00:50:06;31.40;;;18.08;;
64686;SDS011;51113;53.646;-113.674;2023-06-10T00:52:35;48.90;;;19.48;;
64686;SDS011;51113;53.646;-113.674;2023-06-10T00:55:04;30.38;;;16.55;;
64686;SDS011;51113;53.646;-113.674;2023-06-10T00:57:36;40.65;;;17.35;;
64686;SDS011;51113;53.646;-113.674;2023-06-10T01:00:06;47.03;;;21.83;;
64686;SDS011;51113;53.646;-113.674;2023-06-10T01:02:36;29.13;;;17.48;;
64686;SDS011;51113;53.646;-113.674;2023-06-10T01:05:05;32.97;;;17.27;;
64686;SDS011;51113;53.646;-113.674;2023-06-10T01:07:38;36.63;;;18.60;;
64686;SDS011;51113;53.646;-113.674;2023-06-10T01:10:36;33.13;;;18.05;;
64686;SDS011;51113;53.646;-113.674;2023-06-10T01:13:12;45.38;;;20.02;;
64686;SDS011;51113;53.646;-113.674;2023-06-10T01:15:43;36.22;;;20.35;;
64686;SDS011;51113;53.646;-113.674;2023-06-10T01:18:12;38.88;;;18.98;;
64686;SDS011;51113;53.646;-113.674;2023-06-10T01:20:43;36.45;;;19.27;;
64686;SDS011;51113;53.646;-113.674;2023-06-10T01:23:16;40.85;;;19.80;;
64686;SDS011;51113;53.646;-113.674;2023-06-10T01:25:49;36.78;;;19.35;;
64686;SDS011;51113;53.646;-113.674;2023-06-10T01:28:27;34.20;;;18.63;;
64686;SDS011;51113;53.646;-113.674;2023-06-10T01:31:15;38.67;;;22.10;;
64686;SDS011;51113;53.646;-113.674;2023-06-10T01:34:01;39.53;;;18.52;;
64686;SDS011;51113;53.646;-113.674;2023-06-10T01:36:36;34.53;;;17.92;;
64686;SDS011;51113;53.646;-113.674;2023-06-10T01:39:08;36.08;;;17.67;;
64686;SDS011;51113;53.646;-113.674;2023-06-10T01:41:39;40.20;;;18.13;;
64686;SDS011;51113;53.646;-113.674;2023-06-10T01:44:08;32.50;;;18.55;;
64686;SDS011;51113;53.646;-113.674;2023-06-10T01:46:38;36.58;;;17.30;;
64686;SDS011;51113;53.646;-113.674;2023-06-10T01:49:06;33.72;;;17.65;;
64686;SDS011;51113;53.646;-113.674;2023-06-10T01:51:35;34.65;;;17.15;;
64686;SDS011;51113;53.646;-113.674;2023-06-10T01:54:04;35.15;;;18.02;;
64686;SDS011;51113;53.646;-113.674;2023-06-10T01:56:33;32.55;;;19.40;;
64686;SDS011;51113;53.646;-113.674;2023-06-10T01:59:02;36.25;;;17.83;;
64686;SDS011;51113;53.646;-113.674;2023-06-10T02:01:31;34.92;;;17.70;;
64686;SDS011;51113;53.646;-113.674;2023-06-10T02:03:59;33.70;;;17.08;;
64686;SDS011;51113;53.646;-113.674;2023-06-10T02:06:28;39.85;;;16.40;;
64686;SDS011;51113;53.646;-113.674;2023-06-10T02:08:57;44.53;;;16.73;;
64686;SDS011;51113;53.646;-113.674;2023-06-10T02:11:26;30.23;;;17.48;;
64686;SDS011;51113;53.646;-113.674;2023-06-10T02:13:55;36.38;;;17.35;;
64686;SDS011;51113;53.646;-113.674;2023-06-10T02:16:23;39.85;;;16.90;;
64686;SDS011;51113;53.646;-113.674;2023-06-10T02:18:52;36.80;;;17.38;;
64686;SDS011;51113;53.646;-113.674;2023-06-10T02:21:21;28.63;;;16.90;;
64686;SDS011;51113;53.646;-113.674;2023-06-10T02:23:49;29.90;;;16.73;;
64686;SDS011;51113;53.646;-113.674;2023-06-10T02:26:18;38.80;;;16.83;;
64686;SDS011;51113;53.646;-113.674;2023-06-10T02:28:48;41.55;;;17.02;;
64686;SDS011;51113;53.646;-113.674;2023-06-10T02:31:17;31.48;;;16.98;;
64686;SDS011;51113;53.646;-113.674;2023-06-10T02:33:46;32.10;;;16.33;;
64686;SDS011;51113;53.646;-113.674;2023-06-10T02:36:14;27.40;;;17.05;;
64686;SDS011;51113;53.646;-113.674;2023-06-10T02:38:43;33.03;;;15.95;;
64686;SDS011;51113;53.646;-113.674;2023-06-10T02:41:12;44.20;;;17.23;;
64686;SDS011;51113;53.646;-113.674;2023-06-10T02:43:40;32.38;;;15.80;;
64686;SDS011;51113;53.646;-113.674;2023-06-10T02:46:09;32.97;;;16.13;;
64686;SDS011;51113;53.646;-113.674;2023-06-10T02:48:45;38.42;;;16.50;;
64686;SDS011;51113;53.646;-113.674;2023-06-10T02:51:13;25.65;;;16.17;;
64686;SDS011;51113;53.646;-113.674;2023-06-10T02:53:42;32.45;;;15.68;;
64686;SDS011;51113;53.646;-113.674;2023-06-10T02:56:10;32.40;;;15.57;;
64686;SDS011;51113;53.646;-113.674;2023-06-10T02:58:40;34.60;;;15.38;;
64686;SDS011;51113;53.646;-113.674;2023-06-10T03:01:09;34.20;;;14.70;;
64686;SDS011;51113;53.646;-113.674;2023-06-10T03:03:38;25.80;;;15.93;;
64686;SDS011;51113;53.646;-113.674;2023-06-10T03:08:39;23.95;;;14.95;;
64686;SDS011;51113;53.646;-113.674;2023-06-10T03:11:08;31.60;;;15.02;;
64686;SDS011;51113;53.646;-113.674;2023-06-10T03:13:38;30.35;;;14.75;;
64686;SDS011;51113;53.646;-113.674;2023-06-10T03:16:09;36.05;;;14.98;;
64686;SDS011;51113;53.646;-113.674;2023-06-10T03:18:40;29.65;;;14.02;;
64686;SDS011;51113;53.646;-113.674;2023-06-10T03:21:08;34.45;;;15.65;;
64686;SDS011;51113;53.646;-113.674;2023-06-10T03:23:37;31.30;;;13.70;;
64686;SDS011;51113;53.646;-113.674;2023-06-10T03:26:06;24.60;;;13.77;;
64686;SDS011;51113;53.646;-113.674;2023-06-10T03:28:35;28.42;;;14.35;;
64686;SDS011;51113;53.646;-113.674;2023-06-10T03:31:04;30.73;;;14.40;;
64686;SDS011;51113;53.646;-113.674;2023-06-10T03:33:33;26.02;;;14.25;;
64686;SDS011;51113;53.646;-113.674;2023-06-10T03:36:03;24.60;;;14.55;;
64686;SDS011;51113;53.646;-113.674;2023-06-10T03:38:32;24.77;;;13.77;;
64686;SDS011;51113;53.646;-113.674;2023-06-10T03:41:01;24.38;;;13.63;;
64686;SDS011;51113;53.646;-113.674;2023-06-10T03:43:30;26.17;;;13.82;;
64686;SDS011;51113;53.646;-113.674;2023-06-10T03:45:59;33.05;;;14.18;;
64686;SDS011;51113;53.646;-113.674;2023-06-10T03:48:28;21.10;;;12.63;;
64686;SDS011;51113;53.646;-113.674;2023-06-10T03:50:58;33.05;;;13.60;;
64686;SDS011;51113;53.646;-113.674;2023-06-10T03:53:27;26.48;;;13.88;;
64686;SDS011;51113;53.646;-113.674;2023-06-10T03:55:56;24.67;;;13.45;;
64686;SDS011;51113;53.646;-113.674;2023-06-10T03:58:25;28.02;;;13.68;;
64686;SDS011;51113;53.646;-113.674;2023-06-10T04:00:54;30.13;;;13.25;;
64686;SDS011;51113;53.646;-113.674;2023-06-10T04:03:23;25.17;;;13.43;;
64686;SDS011;51113;53.646;-113.674;2023-06-10T04:05:51;28.83;;;13.23;;
64686;SDS011;51113;53.646;-113.674;2023-06-10T04:08:20;27.05;;;12.85;;
64686;SDS011;51113;53.646;-113.674;2023-06-10T04:10:50;24.23;;;13.13;;
64686;SDS011;51113;53.646;-113.674;2023-06-10T04:13:18;23.17;;;12.68;;
64686;SDS011;51113;53.646;-113.674;2023-06-10T04:15:47;21.38;;;12.93;;
64686;SDS011;51113;53.646;-113.674;2023-06-10T04:18:16;24.38;;;12.90;;
64686;SDS011;51113;53.646;-113.674;2023-06-10T04:20:45;24.17;;;12.57;;
64686;SDS011;51113;53.646;-113.674;2023-06-10T04:23:14;21.65;;;12.82;;
64686;SDS011;51113;53.646;-113.674;2023-06-10T04:25:42;23.58;;;12.95;;
64686;SDS011;51113;53.646;-113.674;2023-06-10T04:28:11;31.40;;;12.65;;
64686;SDS011;51113;53.646;-113.674;2023-06-10T04:30:40;27.08;;;12.95;;
64686;SDS011;51113;53.646;-113.674;2023-06-10T04:33:09;23.83;;;13.35;;
64686;SDS011;51113;53.646;-113.674;2023-06-10T04:35:38;24.98;;;12.57;;
64686;SDS011;51113;53.646;-113.674;2023-06-10T04:38:06;25.55;;;13.75;;
64686;SDS011;51113;53.646;-113.674;2023-06-10T04:40:35;27.52;;;12.52;;
64686;SDS011;51113;53.646;-113.674;2023-06-10T04:43:04;23.63;;;13.07;;
64686;SDS011;51113;53.646;-113.674;2023-06-10T04:45:32;26.65;;;13.15;;
64686;SDS011;51113;53.646;-113.674;2023-06-10T04:48:01;27.73;;;13.70;;
64686;SDS011;51113;53.646;-113.674;2023-06-10T04:50:31;26.92;;;13.57;;
64686;SDS011;51113;53.646;-113.674;2023-06-10T04:53:00;26.80;;;13.32;;
64686;SDS011;51113;53.646;-113.674;2023-06-10T04:55:29;24.17;;;12.68;;
64686;SDS011;51113;53.646;-113.674;2023-06-10T04:57:58;28.05;;;13.15;;
64686;SDS011;51113;53.646;-113.674;2023-06-10T05:00:27;29.10;;;14.07;;
64686;SDS011;51113;53.646;-113.674;2023-06-10T05:02:56;25.88;;;13.50;;
64686;SDS011;51113;53.646;-113.674;2023-06-10T05:05:25;28.08;;;12.98;;
64686;SDS011;51113;53.646;-113.674;2023-06-10T05:07:53;29.70;;;14.18;;
64686;SDS011;51113;53.646;-113.674;2023-06-10T05:10:22;20.92;;;12.70;;
64686;SDS011;51113;53.646;-113.674;2023-06-10T05:12:51;26.13;;;13.30;;
64686;SDS011;51113;53.646;-113.674;2023-06-10T05:15:19;29.30;;;13.80;;
64686;SDS011;51113;53.646;-113.674;2023-06-10T05:17:48;24.45;;;13.88;;
64686;SDS011;51113;53.646;-113.674;2023-06-10T05:20:16;24.60;;;13.38;;
64686;SDS011;51113;53.646;-113.674;2023-06-10T05:22:46;25.90;;;13.85;;
64686;SDS011;51113;53.646;-113.674;2023-06-10T05:25:14;31.70;;;13.77;;
64686;SDS011;51113;53.646;-113.674;2023-06-10T05:27:43;27.05;;;13.13;;
64686;SDS011;51113;53.646;-113.674;2023-06-10T05:30:11;25.75;;;13.65;;
64686;SDS011;51113;53.646;-113.674;2023-06-10T05:32:40;25.27;;;13.98;;
64686;SDS011;51113;53.646;-113.674;2023-06-10T05:35:09;26.75;;;14.80;;
64686;SDS011;51113;53.646;-113.674;2023-06-10T05:37:38;22.10;;;13.57;;
64686;SDS011;51113;53.646;-113.674;2023-06-10T05:40:06;26.13;;;13.48;;
64686;SDS011;51113;53.646;-113.674;2023-06-10T05:42:36;23.15;;;13.35;;
64686;SDS011;51113;53.646;-113.674;2023-06-10T05:45:05;29.25;;;13.18;;
64686;SDS011;51113;53.646;-113.674;2023-06-10T05:47:35;36.90;;;14.77;;
64686;SDS011;51113;53.646;-113.674;2023-06-10T05:50:04;31.42;;;14.40;;
64686;SDS011;51113;53.646;-113.674;2023-06-10T05:52:36;23.17;;;14.18;;
64686;SDS011;51113;53.646;-113.674;2023-06-10T05:55:08;23.92;;;13.27;;
64686;SDS011;51113;53.646;-113.674;2023-06-10T05:57:37;25.38;;;14.88;;
64686;SDS011;51113;53.646;-113.674;2023-06-10T06:00:06;27.30;;;13.70;;
64686;SDS011;51113;53.646;-113.674;2023-06-10T06:02:36;27.75;;;14.45;;
64686;SDS011;51113;53.646;-113.674;2023-06-10T06:05:05;25.58;;;14.32;;
64686;SDS011;51113;53.646;-113.674;2023-06-10T06:07:35;23.40;;;13.52;;
64686;SDS011;51113;53.646;-113.674;2023-06-10T06:10:03;27.65;;;14.02;;
64686;SDS011;51113;53.646;-113.674;2023-06-10T06:12:32;29.33;;;14.70;;
64686;SDS011;51113;53.646;-113.674;2023-06-10T06:15:01;23.80;;;15.05;;
64686;SDS011;51113;53.646;-113.674;2023-06-10T06:17:30;22.80;;;14.05;;
64686;SDS011;51113;53.646;-113.674;2023-06-10T06:19:59;30.92;;;15.60;;
64686;SDS011;51113;53.646;-113.674;2023-06-10T06:22:27;31.55;;;14.63;;
64686;SDS011;51113;53.646;-113.674;2023-06-10T06:24:56;21.98;;;14.82;;
64686;SDS011;51113;53.646;-113.674;2023-06-10T06:27:25;25.98;;;15.07;;
64686;SDS011;51113;53.646;-113.674;2023-06-10T06:29:53;28.83;;;15.02;;
64686;SDS011;51113;53.646;-113.674;2023-06-10T06:32:24;28.70;;;15.00;;
64686;SDS011;51113;53.646;-113.674;2023-06-10T06:34:55;30.83;;;15.52;;
64686;SDS011;51113;53.646;-113.674;2023-06-10T06:37:24;25.85;;;14.93;;
64686;SDS011;51113;53.646;-113.674;2023-06-10T06:39:53;28.30;;;15.55;;
64686;SDS011;51113;53.646;-113.674;2023-06-10T06:42:22;29.25;;;15.40;;
64686;SDS011;51113;53.646;-113.674;2023-06-10T06:44:51;35.22;;;16.60;;
64686;SDS011;51113;53.646;-113.674;2023-06-10T06:47:20;34.13;;;16.52;;
64686;SDS011;51113;53.646;-113.674;2023-06-10T06:49:49;30.77;;;16.80;;
64686;SDS011;51113;53.646;-113.674;2023-06-10T06:52:17;38.90;;;17.08;;
64686;SDS011;51113;53.646;-113.674;2023-06-10T06:54:46;35.72;;;17.60;;
64686;SDS011;51113;53.646;-113.674;2023-06-10T06:57:15;32.30;;;17.33;;
64686;SDS011;51113;53.646;-113.674;2023-06-10T06:59:44;33.80;;;17.45;;
64686;SDS011;51113;53.646;-113.674;2023-06-10T07:02:13;36.13;;;17.75;;
64686;SDS011;51113;53.646;-113.674;2023-06-10T07:04:42;37.13;;;17.02;;
64686;SDS011;51113;53.646;-113.674;2023-06-10T07:07:11;34.70;;;18.58;;
64686;SDS011;51113;53.646;-113.674;2023-06-10T07:09:40;35.10;;;17.05;;
64686;SDS011;51113;53.646;-113.674;2023-06-10T07:12:09;34.83;;;16.85;;
64686;SDS011;51113;53.646;-113.674;2023-06-10T07:14:37;33.90;;;17.55;;
64686;SDS011;51113;53.646;-113.674;2023-06-10T07:17:06;41.22;;;18.50;;
64686;SDS011;51113;53.646;-113.674;2023-06-10T07:19:35;32.10;;;16.98;;
64686;SDS011;51113;53.646;-113.674;2023-06-10T07:22:04;43.38;;;18.85;;
64686;SDS011;51113;53.646;-113.674;2023-06-10T07:24:33;36.15;;;17.85;;
64686;SDS011;51113;53.646;-113.674;2023-06-10T07:27:01;32.63;;;18.10;;
64686;SDS011;51113;53.646;-113.674;2023-06-10T07:29:30;32.42;;;17.88;;
64686;SDS011;51113;53.646;-113.674;2023-06-10T07:31:59;33.78;;;18.05;;
64686;SDS011;51113;53.646;-113.674;2023-06-10T07:34:28;35.65;;;18.92;;
64686;SDS011;51113;53.646;-113.674;2023-06-10T07:36:57;56.28;;;19.73;;
64686;SDS011;51113;53.646;-113.674;2023-06-10T07:39:25;39.28;;;19.20;;
64686;SDS011;51113;53.646;-113.674;2023-06-10T07:41:54;38.67;;;19.75;;
64686;SDS011;51113;53.646;-113.674;2023-06-10T07:44:24;44.67;;;20.50;;
64686;SDS011;51113;53.646;-113.674;2023-06-10T07:46:53;39.15;;;20.35;;
64686;SDS011;51113;53.646;-113.674;2023-06-10T07:49:22;35.22;;;20.48;;
64686;SDS011;51113;53.646;-113.674;2023-06-10T07:51:53;38.80;;;18.98;;
64686;SDS011;51113;53.646;-113.674;2023-06-10T07:54:23;43.10;;;19.50;;
64686;SDS011;51113;53.646;-113.674;2023-06-10T07:56:55;39.95;;;20.75;;
64686;SDS011;51113;53.646;-113.674;2023-06-10T07:59:24;36.40;;;20.38;;
64686;SDS011;51113;53.646;-113.674;2023-06-10T08:01:54;35.25;;;19.55;;
64686;SDS011;51113;53.646;-113.674;2023-06-10T08:04:22;41.60;;;19.70;;
64686;SDS011;51113;53.646;-113.674;2023-06-10T08:06:52;45.63;;;20.70;;
64686;SDS011;51113;53.646;-113.674;2023-06-10T08:09:20;38.08;;;19.10;;
64686;SDS011;51113;53.646;-113.674;2023-06-10T08:11:50;47.80;;;19.83;;
64686;SDS011;51113;53.646;-113.674;2023-06-10T08:14:19;35.03;;;19.60;;
64686;SDS011;51113;53.646;-113.674;2023-06-10T08:16:48;36.38;;;18.35;;
64686;SDS011;51113;53.646;-113.674;2023-06-10T08:19:17;32.50;;;19.35;;
64686;SDS011;51113;53.646;-113.674;2023-06-10T08:21:45;37.78;;;20.20;;
64686;SDS011;51113;53.646;-113.674;2023-06-10T08:24:14;39.72;;;19.85;;
64686;SDS011;51113;53.646;-113.674;2023-06-10T08:26:45;32.75;;;19.80;;
64686;SDS011;51113;53.646;-113.674;2023-06-10T08:29:13;41.95;;;20.42;;
64686;SDS011;51113;53.646;-113.674;2023-06-10T08:31:43;39.50;;;20.20;;
64686;SDS011;51113;53.646;-113.674;2023-06-10T08:34:12;34.00;;;19.50;;
64686;SDS011;51113;53.646;-113.674;2023-06-10T08:36:40;40.20;;;20.45;;
64686;SDS011;51113;53.646;-113.674;2023-06-10T08:39:09;35.20;;;20.05;;
64686;SDS011;51113;53.646;-113.674;2023-06-10T08:41:40;49.67;;;20.45;;
64686;SDS011;51113;53.646;-113.674;2023-06-10T08:44:16;39.92;;;19.83;;
64686;SDS011;51113;53.646;-113.674;2023-06-10T08:46:50;50.20;;;19.92;;
64686;SDS011;51113;53.646;-113.674;2023-06-10T08:49:21;36.38;;;19.67;;
64686;SDS011;51113;53.646;-113.674;2023-06-10T08:51:55;35.20;;;20.27;;
64686;SDS011;51113;53.646;-113.674;2023-06-10T08:54:33;38.00;;;20.02;;
64686;SDS011;51113;53.646;-113.674;2023-06-10T08:57:05;38.72;;;20.35;;
64686;SDS011;51113;53.646;-113.674;2023-06-10T08:59:35;37.67;;;20.30;;
64686;SDS011;51113;53.646;-113.674;2023-06-10T09:02:05;34.97;;;20.67;;
64686;SDS011;51113;53.646;-113.674;2023-06-10T09:04:36;35.90;;;20.50;;
64686;SDS011;51113;53.646;-113.674;2023-06-10T09:07:05;34.63;;;19.98;;
64686;SDS011;51113;53.646;-113.674;2023-06-10T09:09:35;44.05;;;20.70;;
64686;SDS011;51113;53.646;-113.674;2023-06-10T09:12:04;41.38;;;20.58;;
64686;SDS011;51113;53.646;-113.674;2023-06-10T09:14:34;38.17;;;21.02;;
64686;SDS011;51113;53.646;-113.674;2023-06-10T09:17:03;43.45;;;21.27;;
64686;SDS011;51113;53.646;-113.674;2023-06-10T09:19:33;39.03;;;20.50;;
64686;SDS011;51113;53.646;-113.674;2023-06-10T09:22:03;48.75;;;22.02;;
64686;SDS011;51113;53.646;-113.674;2023-06-10T09:24:32;41.80;;;21.15;;
64686;SDS011;51113;53.646;-113.674;2023-06-10T09:27:08;41.00;;;21.10;;
64686;SDS011;51113;53.646;-113.674;2023-06-10T09:29:53;40.47;;;21.92;;
64686;SDS011;51113;53.646;-113.674;2023-06-10T09:32:22;42.72;;;20.98;;
64686;SDS011;51113;53.646;-113.674;2023-06-10T09:34:52;48.67;;;22.95;;
64686;SDS011;51113;53.646;-113.674;2023-06-10T09:37:21;36.70;;;21.00;;
64686;SDS011;51113;53.646;-113.674;2023-06-10T09:40:03;41.65;;;21.15;;
64686;SDS011;51113;53.646;-113.674;2023-06-10T09:42:35;40.33;;;22.00;;
64686;SDS011;51113;53.646;-113.674;2023-06-10T09:45:06;48.95;;;22.85;;
64686;SDS011;51113;53.646;-113.674;2023-06-10T09:47:35;43.55;;;22.35;;
64686;SDS011;51113;53.646;-113.674;2023-06-10T09:50:04;41.03;;;21.67;;
64686;SDS011;51113;53.646;-113.674;2023-06-10T09:52:36;42.58;;;21.98;;
64686;SDS011;51113;53.646;-113.674;2023-06-10T09:55:07;44.70;;;23.00;;
64686;SDS011;51113;53.646;-113.674;2023-06-10T09:57:38;46.75;;;22.45;;
64686;SDS011;51113;53.646;-113.674;2023-06-10T10:00:09;46.50;;;23.02;;
64686;SDS011;51113;53.646;-113.674;2023-06-10T10:02:49;48.65;;;22.67;;
64686;SDS011;51113;53.646;-113.674;2023-06-10T10:05:20;45.42;;;21.98;;
64686;SDS011;51113;53.646;-113.674;2023-06-10T10:07:50;44.45;;;22.73;;
64686;SDS011;51113;53.646;-113.674;2023-06-10T10:10:20;41.47;;;22.42;;
64686;SDS011;51113;53.646;-113.674;2023-06-10T10:12:55;46.75;;;23.80;;
64686;SDS011;51113;53.646;-113.674;2023-06-10T10:15:25;43.22;;;21.95;;
64686;SDS011;51113;53.646;-113.674;2023-06-10T10:18:00;41.63;;;23.70;;
64686;SDS011;51113;53.646;-113.674;2023-06-10T10:20:33;42.85;;;22.30;;
64686;SDS011;51113;53.646;-113.674;2023-06-10T10:23:03;48.20;;;23.10;;
64686;SDS011;51113;53.646;-113.674;2023-06-10T10:25:38;43.08;;;21.77;;
64686;SDS011;51113;53.646;-113.674;2023-06-10T10:30:42;43.40;;;22.77;;
64686;SDS011;51113;53.646;-113.674;2023-06-10T10:33:18;46.75;;;24.15;;
64686;SDS011;51113;53.646;-113.674;2023-06-10T10:35:51;39.35;;;22.50;;
64686;SDS011;51113;53.646;-113.674;2023-06-10T10:38:21;49.33;;;23.35;;
64686;SDS011;51113;53.646;-113.674;2023-06-10T10:40:50;48.17;;;22.55;;
64686;SDS011;51113;53.646;-113.674;2023-06-10T10:43:20;51.55;;;23.38;;
64686;SDS011;51113;53.646;-113.674;2023-06-10T10:46:11;44.80;;;22.60;;
64686;SDS011;51113;53.646;-113.674;2023-06-10T10:48:41;47.40;;;23.40;;
64686;SDS011;51113;53.646;-113.674;2023-06-10T10:51:11;46.22;;;22.73;;
64686;SDS011;51113;53.646;-113.674;2023-06-10T10:53:39;47.92;;;23.27;;
64686;SDS011;51113;53.646;-113.674;2023-06-10T10:56:12;44.63;;;24.13;;
64686;SDS011;51113;53.646;-113.674;2023-06-10T10:58:42;44.88;;;23.58;;
64686;SDS011;51113;53.646;-113.674;2023-06-10T11:01:39;49.80;;;23.00;;
64686;SDS011;51113;53.646;-113.674;2023-06-10T11:04:09;45.63;;;23.17;;
64686;SDS011;51113;53.646;-113.674;2023-06-10T11:06:38;46.47;;;22.83;;
64686;SDS011;51113;53.646;-113.674;2023-06-10T11:09:25;46.10;;;22.67;;
64686;SDS011;51113;53.646;-113.674;2023-06-10T11:11:58;38.83;;;23.38;;
64686;SDS011;51113;53.646;-113.674;2023-06-10T11:14:30;44.75;;;23.45;;
64686;SDS011;51113;53.646;-113.674;2023-06-10T11:17:00;43.08;;;23.13;;
64686;SDS011;51113;53.646;-113.674;2023-06-10T11:19:32;41.55;;;22.00;;
64686;SDS011;51113;53.646;-113.674;2023-06-10T11:22:06;44.22;;;23.48;;
64686;SDS011;51113;53.646;-113.674;2023-06-10T11:24:37;40.47;;;23.23;;
64686;SDS011;51113;53.646;-113.674;2023-06-10T11:27:19;48.88;;;22.70;;
64686;SDS011;51113;53.646;-113.674;2023-06-10T11:32:49;48.42;;;21.92;;
64686;SDS011;51113;53.646;-113.674;2023-06-10T11:35:26;54.10;;;22.73;;
64686;SDS011;51113;53.646;-113.674;2023-06-10T11:37:55;38.75;;;22.08;;
64686;SDS011;51113;53.646;-113.674;2023-06-10T11:40:24;46.75;;;22.08;;
64686;SDS011;51113;53.646;-113.674;2023-06-10T11:42:54;41.58;;;21.42;;
64686;SDS011;51113;53.646;-113.674;2023-06-10T11:45:23;38.17;;;21.25;;
64686;SDS011;51113;53.646;-113.674;2023-06-10T11:47:56;44.47;;;21.05;;
64686;SDS011;51113;53.646;-113.674;2023-06-10T11:52:57;40.72;;;21.30;;
64686;SDS011;51113;53.646;-113.674;2023-06-10T11:55:47;38.97;;;22.00;;
64686;SDS011;51113;53.646;-113.674;2023-06-10T11:58:17;41.70;;;21.40;;
64686;SDS011;51113;53.646;-113.674;2023-06-10T12:00:47;37.85;;;20.52;;
64686;SDS011;51113;53.646;-113.674;2023-06-10T12:03:17;37.72;;;22.55;;
64686;SDS011;51113;53.646;-113.674;2023-06-10T12:08:25;40.22;;;21.75;;
64686;SDS011;51113;53.646;-113.674;2023-06-10T12:10:55;39.92;;;20.98;;
64686;SDS011;51113;53.646;-113.674;2023-06-10T12:13:27;49.75;;;22.02;;
64686;SDS011;51113;53.646;-113.674;2023-06-10T12:16:05;37.42;;;21.58;;
64686;SDS011;51113;53.646;-113.674;2023-06-10T12:18:35;54.88;;;21.98;;
64686;SDS011;51113;53.646;-113.674;2023-06-10T12:21:14;43.22;;;21.85;;
64686;SDS011;51113;53.646;-113.674;2023-06-10T12:26:34;42.08;;;22.65;;
64686;SDS011;51113;53.646;-113.674;2023-06-10T12:29:18;53.22;;;22.40;;
64686;SDS011;51113;53.646;-113.674;2023-06-10T12:31:57;38.15;;;20.92;;
64686;SDS011;51113;53.646;-113.674;2023-06-10T12:37:09;42.15;;;22.23;;
64686;SDS011;51113;53.646;-113.674;2023-06-10T12:39:42;39.42;;;21.55;;
64686;SDS011;51113;53.646;-113.674;2023-06-10T12:42:23;38.33;;;22.17;;
64686;SDS011;51113;53.646;-113.674;2023-06-10T12:44:53;42.83;;;22.20;;
64686;SDS011;51113;53.646;-113.674;2023-06-10T12:47:31;41.63;;;21.20;;
64686;SDS011;51113;53.646;-113.674;2023-06-10T12:50:02;40.15;;;22.02;;
64686;SDS011;51113;53.646;-113.674;2023-06-10T12:52:32;39.58;;;21.75;;
64686;SDS011;51113;53.646;-113.674;2023-06-10T12:55:00;38.88;;;21.20;;
64686;SDS011;51113;53.646;-113.674;2023-06-10T12:57:30;41.55;;;21.45;;
64686;SDS011;51113;53.646;-113.674;2023-06-10T12:59:59;39.60;;;20.85;;
64686;SDS011;51113;53.646;-113.674;2023-06-10T13:02:32;40.67;;;21.42;;
64686;SDS011;51113;53.646;-113.674;2023-06-10T13:05:00;37.60;;;21.50;;
64686;SDS011;51113;53.646;-113.674;2023-06-10T13:07:30;37.97;;;21.52;;
64686;SDS011;51113;53.646;-113.674;2023-06-10T13:09:59;42.60;;;21.95;;
64686;SDS011;51113;53.646;-113.674;2023-06-10T13:12:28;46.35;;;22.30;;
64686;SDS011;51113;53.646;-113.674;2023-06-10T13:15:13;40.97;;;21.45;;
64686;SDS011;51113;53.646;-113.674;2023-06-10T13:17:45;47.17;;;20.13;;
64686;SDS011;51113;53.646;-113.674;2023-06-10T13:20:17;36.53;;;21.38;;
64686;SDS011;51113;53.646;-113.674;2023-06-10T13:22:47;37.25;;;21.63;;
64686;SDS011;51113;53.646;-113.674;2023-06-10T13:25:17;39.42;;;20.45;;
64686;SDS011;51113;53.646;-113.674;2023-06-10T13:27:46;38.88;;;21.70;;
64686;SDS011;51113;53.646;-113.674;2023-06-10T13:30:14;40.25;;;20.60;;
64686;SDS011;51113;53.646;-113.674;2023-06-10T13:32:43;36.65;;;21.67;;
64686;SDS011;51113;53.646;-113.674;2023-06-10T13:35:12;37.13;;;20.23;;
64686;SDS011;51113;53.646;-113.674;2023-06-10T13:37:41;35.40;;;20.73;;
64686;SDS011;51113;53.646;-113.674;2023-06-10T13:40:09;38.20;;;21.05;;
64686;SDS011;51113;53.646;-113.674;2023-06-10T13:42:38;40.45;;;22.33;;
64686;SDS011;51113;53.646;-113.674;2023-06-10T13:45:07;38.75;;;21.40;;
64686;SDS011;51113;53.646;-113.674;2023-06-10T13:47:37;37.55;;;21.23;;
64686;SDS011;51113;53.646;-113.674;2023-06-10T13:50:06;36.28;;;20.60;;
64686;SDS011;51113;53.646;-113.674;2023-06-10T13:52:36;40.78;;;21.77;;
64686;SDS011;51113;53.646;-113.674;2023-06-10T13:55:04;36.45;;;21.75;;
64686;SDS011;51113;53.646;-113.674;2023-06-10T13:57:34;40.88;;;22.30;;
64686;SDS011;51113;53.646;-113.674;2023-06-10T14:00:03;40.25;;;21.60;;
64686;SDS011;51113;53.646;-113.674;2023-06-10T14:02:32;36.08;;;21.88;;
64686;SDS011;51113;53.646;-113.674;2023-06-10T14:05:01;43.35;;;22.13;;
64686;SDS011;51113;53.646;-113.674;2023-06-10T14:07:29;38.90;;;21.23;;
64686;SDS011;51113;53.646;-113.674;2023-06-10T14:09:58;43.88;;;21.60;;
64686;SDS011;51113;53.646;-113.674;2023-06-10T14:12:27;37.92;;;21.38;;
64686;SDS011;51113;53.646;-113.674;2023-06-10T14:14:55;39.22;;;23.33;;
64686;SDS011;51113;53.646;-113.674;2023-06-10T14:17:24;38.47;;;21.73;;
64686;SDS011;51113;53.646;-113.674;2023-06-10T14:19:53;37.55;;;21.25;;